Time;durP1;ratioP1;P1;durP2;ratioP2;P2;SDS_P1;SDS_P2;PMS_P1;PMS_P2;Temp;Humidity;BMP_temperature;BMP_pressure;BME280_temperature;BME280_humidity;BME280_pressure;Samples;Min_cycle;Max_cycle;Signal;HPM_P1;HPM_P2
2022/10/25 00:01:31;;;;;;;5.70;3.40;;;13.10;99.90;;;;;;5242937;28;20484;-50
2022/10/25 00:04:02;;;;;;;6.07;2.67;;;13.20;99.90;;;;;;5245471;28;20174;-50
2022/10/25 00:06:32;;;;;;;6.50;3.33;;;13.20;99.90;;;;;;5245942;28;21022;-49
2022/10/25 00:09:03;;;;;;;5.77;3.67;;;13.10;99.90;;;;;;5241267;28;20245;-48
2022/10/25 00:11:34;;;;;;;8.80;4.17;;;13.10;99.90;;;;;;5243526;28;20182;-49
2022/10/25 00:14:06;;;;;;;9.00;4.47;;;13.20;99.90;;;;;;5246136;28;20859;-49
2022/10/25 00:16:37;;;;;;;11.43;3.80;;;13.50;99.90;;;;;;5246165;28;20642;-49
2022/10/25 00:19:08;;;;;;;7.10;2.90;;;13.50;99.90;;;;;;5241712;28;20476;-49
2022/10/25 00:21:38;;;;;;;6.40;3.30;;;13.60;99.90;;;;;;5250103;28;20178;-49
2022/10/25 00:24:11;;;;;;;5.10;2.93;;;13.50;99.90;;;;;;5246259;28;20745;-50
2022/10/25 00:26:42;;;;;;;11.33;3.20;;;13.70;99.90;;;;;;5248340;28;20195;-49
2022/10/25 00:29:12;;;;;;;4.47;2.80;;;13.60;99.90;;;;;;5249220;28;20448;-49
2022/10/25 00:31:43;;;;;;;3.93;3.27;;;13.40;99.90;;;;;;5240560;28;20220;-48
2022/10/25 00:34:14;;;;;;;3.73;2.83;;;13.40;99.90;;;;;;5232347;28;20183;-48
2022/10/25 00:36:44;;;;;;;7.13;3.10;;;13.30;99.90;;;;;;5241655;28;20174;-49
2022/10/25 00:39:15;;;;;;;5.07;3.30;;;13.30;99.90;;;;;;5236795;28;20254;-49
2022/10/25 00:41:46;;;;;;;4.77;3.27;;;13.40;99.90;;;;;;5249422;28;20178;-48
2022/10/25 00:44:35;;;;;;;7.17;2.63;;;13.30;99.90;;;;;;5242334;28;20202;-48
2022/10/25 00:47:26;;;;;;;5.30;3.37;;;13.30;99.90;;;;;;5246897;28;20189;-49
2022/10/25 00:50:09;;;;;;;6.83;3.37;;;13.30;99.90;;;;;;5244016;28;20452;-48
2022/10/25 00:52:44;;;;;;;4.37;3.67;;;13.30;99.90;;;;;;5245243;28;20464;-49
2022/10/25 00:55:17;;;;;;;6.90;3.07;;;13.20;99.90;;;;;;5243005;28;20527;-48
2022/10/25 00:58:02;;;;;;;11.90;3.50;;;13.20;99.90;;;;;;5245995;28;20524;-50
2022/10/25 01:00:34;;;;;;;8.53;3.10;;;13.30;99.90;;;;;;5239477;28;20483;-48
2022/10/25 01:03:05;;;;;;;7.90;3.20;;;13.20;99.90;;;;;;5243127;28;20433;-48
2022/10/25 01:05:37;;;;;;;8.40;4.10;;;13.20;99.90;;;;;;5244158;28;20531;-50
2022/10/25 01:08:08;;;;;;;3.10;2.90;;;13.30;99.90;;;;;;5245437;28;20424;-50
2022/10/25 01:10:39;;;;;;;8.00;3.77;;;13.30;99.90;;;;;;5241004;28;20517;-49
2022/10/25 01:13:10;;;;;;;7.37;3.80;;;13.40;99.90;;;;;;5240694;28;20432;-48
2022/10/25 01:15:53;;;;;;;6.60;2.60;;;13.50;99.90;;;;;;5245840;28;20958;-49
2022/10/25 01:18:31;;;;;;;4.73;2.90;;;13.70;99.90;;;;;;5241973;28;20220;-48
2022/10/25 01:21:32;;;;;;;4.17;3.27;;;13.70;99.90;;;;;;5242842;28;20543;-49
2022/10/25 01:24:21;;;;;;;6.87;2.90;;;13.60;99.90;;;;;;5243137;28;20434;-50
2022/10/25 01:27:09;;;;;;;5.70;2.83;;;13.90;99.90;;;;;;5235882;28;20459;-47
2022/10/25 01:29:49;;;;;;;3.57;3.27;;;13.80;99.90;;;;;;5234830;28;20460;-49
2022/10/25 01:32:27;;;;;;;11.80;3.40;;;13.80;99.90;;;;;;5238492;28;20425;-47
2022/10/25 01:35:25;;;;;;;8.27;3.03;;;13.90;99.90;;;;;;5242147;28;20454;-48
2022/10/25 01:38:04;;;;;;;5.10;2.90;;;13.90;99.90;;;;;;5243555;28;20512;-51
2022/10/25 01:40:49;;;;;;;4.90;2.60;;;13.90;99.90;;;;;;5242785;28;20460;-48
2022/10/25 01:43:32;;;;;;;6.20;2.87;;;14.00;99.90;;;;;;5238331;28;20933;-48
2022/10/25 01:46:17;;;;;;;12.27;3.90;;;13.90;99.90;;;;;;5240880;28;20452;-48
2022/10/25 01:49:07;;;;;;;9.30;3.90;;;14.00;99.90;;;;;;5240544;28;20495;-48
2022/10/25 01:51:38;;;;;;;10.23;2.60;;;13.90;99.90;;;;;;5244813;28;20444;-49
2022/10/25 01:54:21;;;;;;;10.33;3.80;;;13.80;99.90;;;;;;5244647;28;20466;-49
2022/10/25 01:57:17;;;;;;;10.80;3.30;;;13.70;99.90;;;;;;5246841;28;20182;-48
2022/10/25 02:00:10;;;;;;;3.80;3.20;;;13.60;99.90;;;;;;5234068;28;20588;-50
2022/10/25 02:03:05;;;;;;;10.30;3.67;;;13.50;99.90;;;;;;5229210;28;20432;-50
2022/10/25 02:05:56;;;;;;;5.00;3.23;;;13.50;99.90;;;;;;5234923;28;20447;-48
2022/10/25 02:08:31;;;;;;;3.10;2.33;;;13.40;99.90;;;;;;5248329;28;20420;-50
2022/10/25 02:11:21;;;;;;;9.53;3.30;;;13.30;99.90;;;;;;5247971;28;20440;-50
2022/10/25 02:14:17;;;;;;;7.70;3.33;;;13.30;99.90;;;;;;5224405;28;24498;-49
2022/10/25 02:17:09;;;;;;;3.70;2.63;;;13.30;99.90;;;;;;5250206;28;20440;-49
2022/10/25 02:19:46;;;;;;;17.23;4.07;;;13.20;99.90;;;;;;5247072;28;20460;-48
2022/10/25 02:22:20;;;;;;;6.70;2.40;;;13.20;99.90;;;;;;5246894;28;20465;-49
2022/10/25 02:24:55;;;;;;;4.03;3.00;;;13.20;99.90;;;;;;5249087;28;20420;-49
2022/10/25 02:27:26;;;;;;;4.07;3.07;;;13.20;99.90;;;;;;5249020;28;20539;-48
2022/10/25 02:29:58;;;;;;;7.03;3.17;;;13.20;99.90;;;;;;5245295;28;20468;-51
2022/10/25 02:32:30;;;;;;;13.73;3.73;;;13.20;99.90;;;;;;5248379;28;20436;-49
2022/10/25 02:35:01;;;;;;;5.00;3.10;;;13.30;99.90;;;;;;5243612;28;21017;-49
2022/10/25 02:37:32;;;;;;;2.40;2.30;;;13.20;99.90;;;;;;5248888;28;20429;-48
2022/10/25 02:40:03;;;;;;;7.33;2.60;;;13.20;99.90;;;;;;5241859;28;21071;-49
2022/10/25 02:42:34;;;;;;;4.50;2.90;;;13.20;99.90;;;;;;5240133;28;20659;-48
2022/10/25 02:45:05;;;;;;;6.10;3.40;;;13.20;99.90;;;;;;5246522;28;20178;-54
2022/10/25 02:47:36;;;;;;;6.60;3.33;;;13.30;99.90;;;;;;5246970;28;20181;-49
2022/10/25 02:50:07;;;;;;;3.10;2.80;;;13.30;99.90;;;;;;5244596;28;20456;-48
2022/10/25 02:52:37;;;;;;;3.00;2.67;;;13.20;99.90;;;;;;5239743;28;20193;-49
2022/10/25 02:55:08;;;;;;;3.00;2.40;;;13.20;99.90;;;;;;5249367;28;20428;-48
2022/10/25 02:57:39;;;;;;;9.00;2.87;;;13.20;99.90;;;;;;5247089;28;20496;-49
2022/10/25 03:00:10;;;;;;;9.63;2.93;;;13.20;99.90;;;;;;5239881;28;20206;-49
2022/10/25 03:02:41;;;;;;;5.40;3.07;;;13.20;99.90;;;;;;5244980;28;20665;-48
2022/10/25 03:05:11;;;;;;;3.07;2.63;;;13.20;99.90;;;;;;5243597;28;20474;-48
2022/10/25 03:07:42;;;;;;;4.53;2.87;;;13.20;99.90;;;;;;5250373;28;20650;-49
2022/10/25 03:10:13;;;;;;;5.50;3.23;;;13.30;99.90;;;;;;5245755;28;20292;-49
2022/10/25 03:12:43;;;;;;;8.50;3.00;;;13.30;99.90;;;;;;5242888;28;20201;-48
2022/10/25 03:15:14;;;;;;;16.20;3.17;;;13.30;99.90;;;;;;5246139;28;22208;-49
2022/10/25 03:17:45;;;;;;;3.13;2.70;;;13.30;99.90;;;;;;5249012;28;20185;-48
2022/10/25 03:20:15;;;;;;;8.03;2.30;;;13.20;99.90;;;;;;5239232;28;20213;-49
2022/10/25 03:22:46;;;;;;;3.63;2.90;;;13.30;99.90;;;;;;5245511;28;20208;-48
2022/10/25 03:25:17;;;;;;;9.70;2.90;;;13.30;99.90;;;;;;5227822;28;20178;-51
2022/10/25 03:27:47;;;;;;;3.43;3.00;;;13.40;99.90;;;;;;5243222;28;20556;-48
2022/10/25 03:30:18;;;;;;;8.57;3.10;;;13.40;99.90;;;;;;5241026;28;20213;-48
2022/10/25 03:32:49;;;;;;;4.13;2.73;;;13.40;99.90;;;;;;5245158;28;20182;-51
2022/10/25 03:35:20;;;;;;;4.53;2.80;;;13.40;99.90;;;;;;5244870;28;20208;-48
2022/10/25 03:37:51;;;;;;;2.60;2.40;;;13.40;99.90;;;;;;5246002;28;20265;-50
2022/10/25 03:40:22;;;;;;;11.07;3.50;;;13.50;99.90;;;;;;5245323;28;20478;-49
2022/10/25 03:42:53;;;;;;;4.67;2.33;;;13.50;99.90;;;;;;5246195;28;20432;-51
2022/10/25 03:45:24;;;;;;;4.73;2.20;;;13.60;99.90;;;;;;5241079;28;20190;-49
2022/10/25 03:47:54;;;;;;;6.50;2.10;;;13.60;99.90;;;;;;5244816;28;20553;-50
2022/10/25 03:50:25;;;;;;;8.13;2.33;;;13.60;99.90;;;;;;5258580;28;21803;-48
2022/10/25 03:52:56;;;;;;;2.57;2.37;;;13.60;99.90;;;;;;5245475;28;20174;-49
2022/10/25 03:55:26;;;;;;;26.33;2.17;;;13.70;99.90;;;;;;5244299;28;20594;-49
2022/10/25 03:57:57;;;;;;;2.87;2.43;;;13.60;99.90;;;;;;5246646;28;20666;-47
2022/10/25 04:00:28;;;;;;;4.53;2.80;;;13.70;99.90;;;;;;5245700;22;20237;-50
2022/10/25 04:03:00;;;;;;;5.40;1.77;;;13.70;99.90;;;;;;5237663;28;20185;-49
2022/10/25 04:05:31;;;;;;;2.80;1.67;;;13.70;99.90;;;;;;5240224;28;20588;-50
2022/10/25 04:08:01;;;;;;;3.70;2.07;;;13.80;99.90;;;;;;5235671;28;20440;-50
2022/10/25 04:10:32;;;;;;;8.33;2.20;;;13.90;99.90;;;;;;5238466;28;20464;-52
2022/10/25 04:13:03;;;;;;;3.30;2.10;;;13.80;99.90;;;;;;5242011;28;20202;-51
2022/10/25 04:15:33;;;;;;;2.57;1.47;;;13.80;99.90;;;;;;5236545;28;20198;-52
2022/10/25 04:18:04;;;;;;;4.13;2.00;;;13.80;99.90;;;;;;5239789;28;20637;-49
2022/10/25 04:20:35;;;;;;;1.77;1.40;;;13.80;99.90;;;;;;5237456;28;20223;-51
2022/10/25 04:23:05;;;;;;;2.50;1.20;;;13.80;99.90;;;;;;5236031;28;20958;-51
2022/10/25 04:25:36;;;;;;;2.23;2.00;;;13.80;99.90;;;;;;5243002;28;20189;-49
2022/10/25 04:28:07;;;;;;;2.23;2.03;;;13.80;99.90;;;;;;5238422;28;20253;-48
2022/10/25 04:30:37;;;;;;;4.10;2.20;;;13.80;99.90;;;;;;5238711;28;20666;-48
2022/10/25 04:33:08;;;;;;;1.73;1.50;;;13.80;99.90;;;;;;5240738;28;20197;-48
2022/10/25 04:35:38;;;;;;;2.10;1.67;;;13.80;99.90;;;;;;5234906;28;20190;-49
2022/10/25 04:38:10;;;;;;;1.50;1.40;;;13.80;99.90;;;;;;5243108;28;20269;-48
2022/10/25 04:40:40;;;;;;;1.90;1.07;;;13.80;99.90;;;;;;5239214;28;20574;-50
2022/10/25 04:43:11;;;;;;;2.73;1.80;;;13.90;99.90;;;;;;5238716;28;20441;-49
2022/10/25 04:45:41;;;;;;;8.90;1.60;;;13.90;99.90;;;;;;5237732;28;20182;-51
2022/10/25 04:48:12;;;;;;;3.13;1.37;;;13.90;99.90;;;;;;5242230;28;20257;-51
2022/10/25 04:50:43;;;;;;;2.10;1.70;;;13.80;99.90;;;;;;5235008;28;20506;-49
2022/10/25 04:53:14;;;;;;;2.73;1.30;;;13.80;99.90;;;;;;5226988;28;20227;-51
2022/10/25 04:55:57;;;;;;;3.93;2.07;;;13.80;99.90;;;;;;5237782;28;20471;-51
2022/10/25 04:58:28;;;;;;;2.40;1.50;;;13.70;99.90;;;;;;5250490;28;20233;-50
2022/10/25 05:01:19;;;;;;;3.37;1.50;;;13.60;99.90;;;;;;5233246;28;20905;-51
2022/10/25 05:03:49;;;;;;;3.30;1.07;;;13.60;99.90;;;;;;5227903;28;20421;-52
2022/10/25 05:06:24;;;;;;;3.93;1.30;;;13.60;99.90;;;;;;5242757;28;20439;-51
2022/10/25 05:08:54;;;;;;;1.30;1.20;;;13.60;99.90;;;;;;5235611;28;20186;-49
2022/10/25 05:11:25;;;;;;;4.23;1.37;;;13.50;99.90;;;;;;5239863;28;20467;-50
2022/10/25 05:13:55;;;;;;;2.20;1.50;;;13.40;99.90;;;;;;5239369;28;20186;-50
2022/10/25 05:16:26;;;;;;;3.00;1.80;;;13.40;99.90;;;;;;5240305;28;20186;-46
2022/10/25 05:18:57;;;;;;;2.47;2.27;;;13.40;99.90;;;;;;5242587;28;20197;-47
2022/10/25 05:21:29;;;;;;;4.80;1.67;;;13.20;99.90;;;;;;5230383;28;20195;-47
2022/10/25 05:24:00;;;;;;;10.13;2.13;;;13.20;99.90;;;;;;5234615;28;20181;-47
2022/10/25 05:26:31;;;;;;;3.60;1.90;;;13.10;99.90;;;;;;5239379;28;20472;-47
2022/10/25 05:29:02;;;;;;;7.80;1.90;;;13.00;99.90;;;;;;5239152;28;20432;-48
2022/10/25 05:31:32;;;;;;;1.67;1.57;;;13.00;99.90;;;;;;5236028;28;20210;-48
2022/10/25 05:34:03;;;;;;;1.83;1.27;;;13.00;99.90;;;;;;5245270;28;20178;-47
2022/10/25 05:36:33;;;;;;;3.30;2.10;;;12.90;99.90;;;;;;5239602;28;20595;-48
2022/10/25 05:39:04;;;;;;;4.70;2.23;;;12.80;99.90;;;;;;5245197;28;20202;-49
2022/10/25 05:41:34;;;;;;;5.70;2.47;;;12.80;99.90;;;;;;5238808;28;20194;-48
2022/10/25 05:44:05;;;;;;;5.33;2.83;;;12.80;99.90;;;;;;5230695;28;20187;-47
2022/10/25 05:46:36;;;;;;;2.10;2.00;;;12.90;99.90;;;;;;5229378;28;20234;-48
2022/10/25 05:49:06;;;;;;;4.40;2.07;;;13.00;99.90;;;;;;5236317;28;20178;-48
2022/10/25 05:51:37;;;;;;;13.33;2.30;;;13.10;99.90;;;;;;5240452;28;20203;-47
2022/10/25 05:54:10;;;;;;;4.97;2.30;;;13.20;99.90;;;;;;5248834;28;20189;-48
2022/10/25 05:56:42;;;;;;;2.30;1.43;;;13.20;99.90;;;;;;5245406;28;20895;-49
2022/10/25 05:59:14;;;;;;;3.37;2.03;;;13.40;99.90;;;;;;5239934;28;20852;-49
2022/10/25 06:01:45;;;;;;;4.00;1.90;;;13.50;99.90;;;;;;5243726;28;20496;-50
2022/10/25 06:04:16;;;;;;;8.13;1.90;;;13.50;99.90;;;;;;5238017;28;20437;-48
2022/10/25 06:06:47;;;;;;;4.17;1.57;;;13.60;99.90;;;;;;5242573;28;20447;-46
2022/10/25 06:09:17;;;;;;;8.63;1.87;;;13.60;99.90;;;;;;5246775;28;20979;-49
2022/10/25 06:11:48;;;;;;;2.40;1.80;;;13.70;99.90;;;;;;5247159;28;20214;-46
2022/10/25 06:14:18;;;;;;;3.23;2.20;;;13.70;99.90;;;;;;5238099;28;20277;-48
2022/10/25 06:16:49;;;;;;;5.37;1.57;;;13.70;99.90;;;;;;5242767;28;20183;-47
2022/10/25 06:19:20;;;;;;;2.40;1.60;;;13.80;99.90;;;;;;5239144;28;20194;-49
2022/10/25 06:21:53;;;;;;;3.67;1.60;;;13.80;99.90;;;;;;5239467;28;20691;-47
2022/10/25 06:24:24;;;;;;;3.67;1.20;;;14.00;99.90;;;;;;5248310;28;20197;-48
2022/10/25 06:26:54;;;;;;;1.57;1.17;;;14.00;99.90;;;;;;5246630;28;20441;-47
2022/10/25 06:29:25;;;;;;;5.57;2.10;;;14.00;99.90;;;;;;5245253;28;20190;-48
2022/10/25 06:31:55;;;;;;;1.40;1.30;;;14.10;99.90;;;;;;5237483;28;20182;-49
2022/10/25 06:34:26;;;;;;;2.20;1.53;;;14.20;99.90;;;;;;5246748;28;20189;-47
2022/10/25 06:36:56;;;;;;;10.50;2.10;;;14.20;99.90;;;;;;5244876;28;20175;-48
2022/10/25 06:39:27;;;;;;;5.47;2.33;;;14.30;99.90;;;;;;5235490;28;20194;-47
2022/10/25 06:41:57;;;;;;;5.57;2.20;;;14.30;99.90;;;;;;5243972;28;20182;-53
2022/10/25 06:44:28;;;;;;;6.87;2.17;;;14.20;99.90;;;;;;5241917;28;20174;-47
2022/10/25 06:46:59;;;;;;;2.03;1.93;;;14.20;99.90;;;;;;5239875;28;20175;-50
2022/10/25 06:49:30;;;;;;;3.37;1.73;;;14.30;99.90;;;;;;5247589;28;20544;-47
2022/10/25 06:52:00;;;;;;;4.90;1.13;;;14.30;99.90;;;;;;5247140;28;20182;-47
2022/10/25 06:54:31;;;;;;;2.30;1.30;;;14.40;99.90;;;;;;5241963;28;20283;-50
2022/10/25 06:57:01;;;;;;;4.07;1.30;;;14.40;99.90;;;;;;5242354;28;20182;-47
2022/10/25 06:59:32;;;;;;;9.47;1.27;;;14.40;99.90;;;;;;5237444;28;20214;-48
2022/10/25 07:02:02;;;;;;;2.43;1.27;;;14.50;99.90;;;;;;5239493;28;20217;-49
2022/10/25 07:04:36;;;;;;;1.83;1.57;;;14.60;99.90;;;;;;5235827;28;20604;-53
2022/10/25 07:07:07;;;;;;;1.77;1.67;;;14.60;99.90;;;;;;5222251;28;20179;-48
2022/10/25 07:09:38;;;;;;;5.97;1.47;;;14.70;99.90;;;;;;5239291;28;21018;-49
2022/10/25 07:12:08;;;;;;;1.50;1.40;;;14.70;99.90;;;;;;5231852;28;20179;-51
2022/10/25 07:14:39;;;;;;;1.60;1.50;;;14.70;99.90;;;;;;5243490;28;20182;-52
2022/10/25 07:17:09;;;;;;;11.57;1.77;;;14.80;99.90;;;;;;5249967;28;20182;-50
2022/10/25 07:19:40;;;;;;;5.40;1.70;;;14.80;99.90;;;;;;5240884;28;20340;-50
2022/10/25 07:22:11;;;;;;;8.00;2.07;;;14.70;99.90;;;;;;5244300;28;20174;-50
2022/10/25 07:24:41;;;;;;;1.33;1.17;;;14.80;99.90;;;;;;5237638;28;20665;-49
2022/10/25 07:27:12;;;;;;;5.30;2.10;;;14.80;99.90;;;;;;5241200;28;20232;-51
2022/10/25 07:29:43;;;;;;;5.03;2.23;;;14.90;99.90;;;;;;5239024;28;20182;-51
2022/10/25 07:32:14;;;;;;;1.73;1.33;;;14.80;99.90;;;;;;5233341;28;20561;-50
2022/10/25 07:34:44;;;;;;;6.93;2.40;;;14.80;99.90;;;;;;5236167;28;20444;-49
2022/10/25 07:37:15;;;;;;;6.43;1.80;;;14.80;99.90;;;;;;5239971;28;20597;-48
2022/10/25 07:39:45;;;;;;;6.37;1.80;;;14.70;99.90;;;;;;5238047;28;20244;-50
2022/10/25 07:42:16;;;;;;;2.37;1.90;;;14.70;99.90;;;;;;5222911;28;20186;-50
2022/10/25 07:44:46;;;;;;;5.87;1.93;;;14.70;99.90;;;;;;5234226;28;20179;-48
2022/10/25 07:47:17;;;;;;;8.23;3.57;;;14.80;99.90;;;;;;5235136;28;20183;-50
2022/10/25 07:49:47;;;;;;;9.60;2.30;;;14.80;99.90;;;;;;5236633;28;20206;-48
2022/10/25 07:52:19;;;;;;;3.70;1.90;;;14.70;99.90;;;;;;5234734;28;20194;-51
2022/10/25 07:54:49;;;;;;;5.33;2.80;;;14.80;99.90;;;;;;5227679;28;20798;-47
2022/10/25 07:57:20;;;;;;;4.63;2.63;;;14.90;99.90;;;;;;5232421;28;20593;-49
2022/10/25 07:59:50;;;;;;;4.40;1.80;;;15.00;99.90;;;;;;5226439;28;20206;-50
2022/10/25 08:02:21;;;;;;;5.60;2.83;;;15.00;99.90;;;;;;5234812;28;20243;-50
2022/10/25 08:04:51;;;;;;;3.70;2.40;;;14.70;99.90;;;;;;5242158;28;20178;-49
2022/10/25 08:07:22;;;;;;;11.03;2.40;;;14.60;99.90;;;;;;5241302;28;20593;-50
2022/10/25 08:09:53;;;;;;;4.03;2.07;;;14.60;99.90;;;;;;5242679;28;20224;-48
2022/10/25 08:12:23;;;;;;;6.73;2.13;;;14.50;99.90;;;;;;5240203;28;20235;-50
2022/10/25 08:14:54;;;;;;;2.53;1.60;;;14.40;99.90;;;;;;5227648;28;20233;-48
2022/10/25 08:17:24;;;;;;;1.90;1.70;;;14.30;99.90;;;;;;5245063;28;20186;-51
2022/10/25 08:19:55;;;;;;;2.83;1.77;;;14.20;99.90;;;;;;5236198;28;20237;-50
2022/10/25 08:22:25;;;;;;;4.63;1.33;;;14.20;99.90;;;;;;5240120;28;20194;-50
2022/10/25 08:24:56;;;;;;;3.90;2.27;;;14.30;99.90;;;;;;5242206;28;20220;-51
2022/10/25 08:27:27;;;;;;;4.03;2.30;;;14.30;99.90;;;;;;5232116;28;20183;-49
2022/10/25 08:29:57;;;;;;;2.73;1.67;;;14.30;99.90;;;;;;5232409;28;20213;-49
2022/10/25 08:32:30;;;;;;;2.07;1.87;;;14.30;99.90;;;;;;5232195;28;20213;-50
2022/10/25 08:35:00;;;;;;;4.97;2.13;;;14.10;99.90;;;;;;5230382;28;20190;-51
2022/10/25 08:37:31;;;;;;;5.17;2.47;;;14.10;99.90;;;;;;5227530;28;20441;-46
2022/10/25 08:40:02;;;;;;;3.77;2.50;;;14.10;99.90;;;;;;5229926;28;20272;-51
2022/10/25 08:42:35;;;;;;;5.83;2.60;;;14.00;99.90;;;;;;5239491;28;20587;-50
2022/10/25 08:45:25;;;;;;;4.80;2.37;;;14.00;99.90;;;;;;5232164;28;20182;-46
2022/10/25 08:47:56;;;;;;;2.90;2.60;;;14.00;99.90;;;;;;5236485;28;20448;-51
2022/10/25 08:51:26;;;;;;;5.27;2.20;;;14.00;99.90;;;;;;5236372;28;20474;-49
2022/10/25 08:54:01;;;;;;;7.93;2.63;;;14.10;99.90;;;;;;5258388;28;20882;-52
2022/10/25 08:56:33;;;;;;;10.63;2.60;;;14.10;99.90;;;;;;5250708;28;20474;-48
2022/10/25 08:59:04;;;;;;;12.33;2.40;;;14.20;99.90;;;;;;5234500;28;20472;-51
2022/10/25 09:01:42;;;;;;;2.20;1.70;;;14.20;99.90;;;;;;5242014;28;20525;-48
2022/10/25 09:04:14;;;;;;;3.70;1.47;;;14.30;99.90;;;;;;5225370;28;20558;-49
2022/10/25 09:07:00;;;;;;;2.57;1.93;;;14.70;99.90;;;;;;5242192;28;20455;-50
2022/10/25 09:10:15;;;;;;;2.97;1.63;;;15.10;99.90;;;;;;5243973;28;20432;-51
2022/10/25 09:13:11;;;;;;;2.57;1.80;;;15.40;99.90;;;;;;5243606;28;20470;-50
2022/10/25 09:15:53;;;;;;;3.90;1.90;;;15.60;99.90;;;;;;5228145;28;20465;-51
2022/10/25 09:18:51;;;;;;;3.87;2.23;;;15.70;99.90;;;;;;5238442;28;20558;-48
2022/10/25 09:21:28;;;;;;;11.33;1.93;;;15.70;99.90;;;;;;5240937;28;20967;-47
2022/10/25 09:24:25;;;;;;;3.40;2.60;;;15.80;99.90;;;;;;5236120;28;20809;-49
2022/10/25 09:27:20;;;;;;;5.20;2.27;;;15.70;99.90;;;;;;5238098;28;20451;-51
2022/10/25 09:30:00;;;;;;;6.80;2.40;;;15.70;99.90;;;;;;5241644;28;20476;-50
2022/10/25 09:32:38;;;;;;;4.50;2.13;;;15.90;99.90;;;;;;5242691;28;20453;-49
2022/10/25 09:35:16;;;;;;;5.87;2.20;;;16.00;99.90;;;;;;5235595;28;20437;-51
2022/10/25 09:37:51;;;;;;;5.87;2.33;;;16.20;99.90;;;;;;5233677;28;20439;-51
2022/10/25 09:40:26;;;;;;;7.20;2.30;;;16.30;99.90;;;;;;5242367;28;20491;-51
2022/10/25 09:43:06;;;;;;;7.30;3.30;;;16.40;99.90;;;;;;5241581;28;20535;-50
2022/10/25 09:46:00;;;;;;;4.93;2.63;;;16.60;99.90;;;;;;5244446;28;20431;-50
2022/10/25 09:48:53;;;;;;;5.73;2.60;;;16.70;99.90;;;;;;5229896;28;20421;-50
2022/10/25 09:51:45;;;;;;;4.23;1.70;;;16.90;99.90;;;;;;5237409;28;21014;-48
2022/10/25 09:54:39;;;;;;;9.47;2.27;;;17.20;99.90;;;;;;5237316;28;20532;-51
2022/10/25 09:57:10;;;;;;;4.00;1.87;;;17.30;99.90;;;;;;5235128;28;20520;-49
2022/10/25 10:02:23;;;;;;;2.23;1.43;;;17.20;99.90;;;;;;5260428;28;20201;-48
2022/10/25 10:04:54;;;;;;;1.80;1.33;;;17.10;99.90;;;;;;5260482;28;21220;-50
2022/10/25 10:07:36;;;;;;;1.93;1.73;;;16.90;99.90;;;;;;5245498;28;20462;-50
2022/10/25 10:10:11;;;;;;;15.10;2.07;;;16.90;99.90;;;;;;5230359;28;20205;-51
2022/10/25 10:13:09;;;;;;;4.30;2.50;;;16.80;99.90;;;;;;5259528;28;20942;-51
2022/10/25 10:15:59;;;;;;;2.80;1.57;;;16.70;99.90;;;;;;5258272;28;20435;-49
2022/10/25 10:18:34;;;;;;;4.53;2.43;;;16.60;99.90;;;;;;5261550;28;20432;-50
2022/10/25 10:21:09;;;;;;;3.43;2.63;;;16.60;99.90;;;;;;5256919;28;20534;-51
2022/10/25 10:23:40;;;;;;;8.30;2.40;;;16.70;99.90;;;;;;5255004;28;20455;-50
2022/10/25 10:26:21;;;;;;;1.80;1.57;;;16.50;99.90;;;;;;5255201;28;20427;-52
2022/10/25 10:29:15;;;;;;;3.63;2.00;;;16.50;99.90;;;;;;5259236;28;20212;-53
2022/10/25 10:31:52;;;;;;;2.23;1.60;;;16.50;99.90;;;;;;5264265;28;20467;-53
2022/10/25 10:34:31;;;;;;;2.33;2.00;;;16.50;99.90;;;;;;5245514;28;20572;-53
2022/10/25 10:37:04;;;;;;;5.53;2.17;;;16.40;99.90;;;;;;5262066;28;20504;-53
2022/10/25 10:39:46;;;;;;;10.40;3.00;;;16.30;99.90;;;;;;5250444;28;20509;-52
2022/10/25 10:42:22;;;;;;;13.70;5.43;;;16.20;99.90;;;;;;5261466;28;20462;-54
2022/10/25 10:45:07;;;;;;;3.43;2.20;;;16.30;99.90;;;;;;5259061;28;21085;-52
2022/10/25 10:47:58;;;;;;;4.67;2.37;;;16.40;99.90;;;;;;5256514;28;20444;-51
2022/10/25 10:50:31;;;;;;;5.47;3.97;;;16.60;99.90;;;;;;5264037;28;20806;-51
2022/10/25 10:53:19;;;;;;;5.00;2.80;;;16.80;99.90;;;;;;5255307;28;20779;-52
2022/10/25 10:55:52;;;;;;;2.43;1.63;;;17.10;99.90;;;;;;5259232;28;20439;-50
2022/10/25 10:58:36;;;;;;;7.60;2.97;;;17.30;99.90;;;;;;5262571;28;20435;-53
2022/10/25 11:01:27;;;;;;;7.67;2.97;;;17.20;99.90;;;;;;5262447;28;20459;-51
2022/10/25 11:03:59;;;;;;;5.03;2.47;;;17.10;99.90;;;;;;5240888;28;20462;-51
2022/10/25 11:06:32;;;;;;;4.53;2.37;;;17.10;99.90;;;;;;5262529;28;20467;-51
2022/10/25 11:09:18;;;;;;;3.67;2.60;;;17.30;99.90;;;;;;5252053;28;20950;-51
2022/10/25 11:12:11;;;;;;;5.40;2.60;;;17.50;99.90;;;;;;5266943;28;20451;-50
2022/10/25 11:14:42;;;;;;;5.63;2.37;;;17.60;99.90;;;;;;5264604;28;20486;-50
2022/10/25 11:17:26;;;;;;;5.23;3.27;;;17.90;99.90;;;;;;5259603;28;20433;-49
2022/10/25 11:20:15;;;;;;;4.97;3.30;;;18.00;99.90;;;;;;5254162;28;20679;-50
2022/10/25 11:22:52;;;;;;;10.90;5.57;;;18.00;99.90;;;;;;5260429;28;20435;-49
2022/10/25 11:25:40;;;;;;;5.13;4.50;;;18.00;99.90;;;;;;5264662;28;20415;-52
2022/10/25 11:28:25;;;;;;;6.97;5.03;;;18.10;99.90;;;;;;5267563;28;20435;-49
2022/10/25 11:31:03;;;;;;;12.63;5.53;;;18.20;99.90;;;;;;5251998;28;20452;-48
2022/10/25 11:33:52;;;;;;;8.67;5.03;;;18.40;99.90;;;;;;5241050;28;20530;-51
2022/10/25 11:36:30;;;;;;;7.37;3.87;;;18.50;99.90;;;;;;5260182;28;20491;-50
2022/10/25 11:39:12;;;;;;;10.77;3.80;;;18.50;99.90;;;;;;5255741;28;20452;-54
2022/10/25 11:42:18;;;;;;;10.13;3.30;;;18.50;99.90;;;;;;5259982;28;20479;-48
2022/10/25 11:45:09;;;;;;;8.93;5.00;;;18.50;99.90;;;;;;5258949;28;20488;-54
2022/10/25 11:47:49;;;;;;;6.07;3.40;;;18.40;99.90;;;;;;5246785;28;20443;-50
2022/10/25 11:50:27;;;;;;;2.87;2.30;;;18.20;99.90;;;;;;5273794;28;21359;-49
2022/10/25 11:53:24;;;;;;;7.53;3.90;;;18.00;99.90;;;;;;5264341;28;20518;-48
2022/10/25 11:56:08;;;;;;;5.77;2.07;;;17.80;99.90;;;;;;5262233;28;20882;-56
2022/10/25 11:59:14;;;;;;;4.27;2.90;;;17.60;99.90;;;;;;5259869;28;20503;-52
2022/10/25 12:02:19;;;;;;;7.90;3.57;;;17.50;99.90;;;;;;5261701;28;20522;-50
2022/10/25 12:05:01;;;;;;;7.43;3.87;;;17.40;99.90;;;;;;5258513;28;20440;-50
2022/10/25 12:07:51;;;;;;;5.10;2.00;;;17.40;99.90;;;;;;5259903;28;20424;-53
2022/10/25 12:10:38;;;;;;;6.10;2.70;;;17.60;99.90;;;;;;5257795;28;20533;-53
2022/10/25 12:13:37;;;;;;;4.50;3.10;;;17.70;99.90;;;;;;5259953;28;20439;-49
2022/10/25 12:16:15;;;;;;;7.70;3.00;;;17.80;99.90;;;;;;5256992;28;20773;-48
2022/10/25 12:19:11;;;;;;;12.27;3.30;;;17.70;99.90;;;;;;5255619;28;20430;-49
2022/10/25 12:21:54;;;;;;;4.00;2.80;;;17.90;99.90;;;;;;5246896;28;20551;-50
2022/10/25 12:24:40;;;;;;;5.43;2.50;;;17.80;99.90;;;;;;5260777;28;20435;-50
2022/10/25 12:27:15;;;;;;;10.50;3.07;;;17.80;99.90;;;;;;5258062;28;20456;-47
2022/10/25 12:29:52;;;;;;;9.33;3.30;;;17.80;99.90;;;;;;5255614;28;20435;-49
2022/10/25 12:32:31;;;;;;;8.13;2.37;;;17.80;99.90;;;;;;5260646;28;20523;-56
2022/10/25 12:35:05;;;;;;;5.00;2.07;;;17.80;99.90;;;;;;5260741;28;20462;-51
2022/10/25 12:37:58;;;;;;;2.73;1.87;;;18.00;99.90;;;;;;5240830;28;20435;-49
2022/10/25 12:40:36;;;;;;;4.17;2.03;;;18.10;99.90;;;;;;5261902;28;20574;-48
2022/10/25 12:43:13;;;;;;;5.30;2.30;;;18.10;99.90;;;;;;5262374;28;20484;-49
2022/10/25 12:46:09;;;;;;;5.20;2.23;;;18.10;99.90;;;;;;5256294;28;20545;-50
2022/10/25 12:49:12;;;;;;;8.27;5.60;;;18.20;99.90;;;;;;5258878;28;20427;-51
2022/10/25 12:52:04;;;;;;;5.37;2.33;;;18.10;99.90;;;;;;5193191;28;20455;-51
2022/10/25 12:54:46;;;;;;;5.20;1.87;;;17.90;99.90;;;;;;5263510;28;20431;-50
2022/10/25 12:57:51;;;;;;;4.27;1.37;;;17.70;99.90;;;;;;5264636;28;21062;-49
2022/10/25 13:00:22;;;;;;;7.17;1.67;;;17.70;99.90;;;;;;5211644;28;1286754;-48
2022/10/25 13:03:08;;;;;;;3.97;1.80;;;17.80;99.90;;;;;;5263119;28;20331;-52
2022/10/25 13:06:01;;;;;;;2.40;1.60;;;17.80;99.90;;;;;;5263213;28;20439;-50
2022/10/25 13:08:32;;;;;;;4.67;2.13;;;18.00;99.90;;;;;;5260036;28;21804;-50
2022/10/25 13:11:06;;;;;;;2.60;1.80;;;18.30;99.90;;;;;;5261724;28;20464;-51
2022/10/25 13:13:50;;;;;;;4.63;2.33;;;18.40;99.90;;;;;;5253903;28;20443;-53
2022/10/25 13:16:24;;;;;;;1.40;1.30;;;18.40;99.90;;;;;;5258858;28;20432;-49
2022/10/25 13:19:25;;;;;;;2.60;2.00;;;18.40;99.90;;;;;;5265722;28;20471;-48
2022/10/25 13:21:55;;;;;;;4.73;2.33;;;18.40;99.90;;;;;;5265530;28;20455;-51
2022/10/25 13:24:41;;;;;;;4.23;1.97;;;18.40;99.90;;;;;;5260178;28;20506;-47
2022/10/25 13:27:12;;;;;;;7.20;2.60;;;18.10;99.90;;;;;;5256390;28;21444;-48
2022/10/25 13:29:59;;;;;;;3.20;1.77;;;17.90;99.90;;;;;;5260416;28;20808;-50
2022/10/25 13:32:37;;;;;;;2.70;2.17;;;17.80;99.90;;;;;;5244083;28;20190;-50
2022/10/25 13:35:37;;;;;;;3.03;1.87;;;17.40;99.90;;;;;;5261349;28;20435;-50
2022/10/25 13:38:18;;;;;;;4.63;2.07;;;17.30;99.90;;;;;;5234471;28;20444;-50